Time;durP1;ratioP1;P1;durP2;ratioP2;P2;SDS_P1;SDS_P2;PMS_P1;PMS_P2;Temp;Humidity;BMP_temperature;BMP_pressure;BME280_temperature;BME280_humidity;BME280_pressure;Samples;Min_cycle;Max_cycle;Signal;HPM_P1;HPM_P2
2022/11/28 00:02:20;;;;;;;16.70;9.93;;;;;;;;;;5018882;28;20040;-72
2022/11/28 00:04:49;;;;;;;20.13;9.57;;;;;;;;;;5019038;28;20520;-72
2022/11/28 00:07:14;;;;;;;16.83;9.83;;;;;;;;;;5002816;28;20046;-72
2022/11/28 00:09:40;;;;;;;13.10;8.37;;;;;;;;;;5002450;28;20132;-72
2022/11/28 00:12:05;;;;;;;15.97;9.17;;;;;;;;;;5002335;28;20103;-74
2022/11/28 00:14:31;;;;;;;20.27;9.63;;;;;;;;;;5016211;28;20032;-72
2022/11/28 00:16:58;;;;;;;18.07;9.27;;;;;;;;;;5038713;28;20032;-74
2022/11/28 00:19:24;;;;;;;17.73;9.13;;;;;;;;;;5021814;28;20391;-74
2022/11/28 00:21:50;;;;;;;22.80;9.70;;;;;;;;;;5055069;28;20490;-72
2022/11/28 00:24:15;;;;;;;15.07;8.50;;;;;;;;;;5055067;28;20044;-74
2022/11/28 00:26:41;;;;;;;13.87;8.40;;;;;;;;;;5038470;28;20068;-74
2022/11/28 00:29:07;;;;;;;14.17;8.17;;;;;;;;;;5021968;28;20119;-74
2022/11/28 00:31:34;;;;;;;15.23;8.37;;;;;;;;;;5021599;28;20033;-75
2022/11/28 00:34:03;;;;;;;14.60;8.17;;;;;;;;;;5054643;28;20047;-74
2022/11/28 00:36:29;;;;;;;18.77;9.17;;;;;;;;;;5021671;28;20029;-74
2022/11/28 00:38:54;;;;;;;13.37;7.80;;;;;;;;;;5054522;28;20044;-74
2022/11/28 00:41:23;;;;;;;14.03;8.17;;;;;;;;;;5037783;28;20048;-73
2022/11/28 00:43:50;;;;;;;13.00;7.40;;;;;;;;;;5038549;28;20036;-74
2022/11/28 00:46:16;;;;;;;21.07;9.03;;;;;;;;;;5054907;28;20135;-74
2022/11/28 00:48:41;;;;;;;14.07;8.60;;;;;;;;;;5054412;28;20047;-76
2022/11/28 00:51:14;;;;;;;16.20;8.70;;;;;;;;;;5037261;28;20036;-76
2022/11/28 00:53:41;;;;;;;15.53;8.67;;;;;;;;;;5053764;28;20619;-76
2022/11/28 00:56:07;;;;;;;15.63;8.50;;;;;;;;;;5036128;28;20033;-77
2022/11/28 00:58:33;;;;;;;16.97;9.07;;;;;;;;;;5054353;28;20094;-76
2022/11/28 01:00:59;;;;;;;14.70;9.07;;;;;;;;;;5036165;28;20067;-76
2022/11/28 01:03:26;;;;;;;13.37;8.53;;;;;;;;;;5054354;28;20052;-74
2022/11/28 01:05:52;;;;;;;21.03;8.50;;;;;;;;;;5054143;28;20051;-74
2022/11/28 01:08:17;;;;;;;83.70;11.40;;;;;;;;;;5021310;28;20066;-74
2022/11/28 01:10:44;;;;;;;14.80;8.67;;;;;;;;;;5053072;28;20086;-74
2022/11/28 01:13:10;;;;;;;12.67;8.07;;;;;;;;;;5020141;28;20097;-74
2022/11/28 01:15:36;;;;;;;16.93;8.50;;;;;;;;;;5020730;28;20048;-75
2022/11/28 01:18:09;;;;;;;17.17;9.40;;;;;;;;;;5021540;28;20033;-74
2022/11/28 01:20:34;;;;;;;31.00;9.17;;;;;;;;;;5020027;28;20385;-75
2022/11/28 01:23:00;;;;;;;15.10;8.50;;;;;;;;;;5037732;28;20373;-73
2022/11/28 01:25:25;;;;;;;16.47;9.33;;;;;;;;;;5053424;28;20062;-77
2022/11/28 01:27:51;;;;;;;17.43;9.37;;;;;;;;;;5051720;28;20090;-72
2022/11/28 01:30:17;;;;;;;13.73;7.73;;;;;;;;;;5018782;28;20097;-71
2022/11/28 01:32:42;;;;;;;12.43;7.60;;;;;;;;;;5018446;28;20067;-74
2022/11/28 01:35:08;;;;;;;15.50;8.57;;;;;;;;;;5034535;28;20075;-74
2022/11/28 01:37:33;;;;;;;17.60;8.83;;;;;;;;;;5018920;28;20081;-74
2022/11/28 01:39:59;;;;;;;18.00;9.50;;;;;;;;;;5018663;28;20060;-74
2022/11/28 01:42:24;;;;;;;18.57;9.70;;;;;;;;;;5053159;28;20596;-74
2022/11/28 01:44:53;;;;;;;17.40;10.20;;;;;;;;;;5054131;28;20032;-74
2022/11/28 01:47:23;;;;;;;19.40;10.73;;;;;;;;;;5054302;28;20067;-73
2022/11/28 01:49:49;;;;;;;25.83;12.17;;;;;;;;;;5053976;28;20024;-73
2022/11/28 01:52:16;;;;;;;31.17;12.87;;;;;;;;;;5070372;28;20043;-73
2022/11/28 01:54:44;;;;;;;24.20;10.90;;;;;;;;;;5053610;28;20056;-74
2022/11/28 01:57:12;;;;;;;21.10;10.83;;;;;;;;;;5020709;28;20121;-74
2022/11/28 01:59:42;;;;;;;69.33;15.33;;;;;;;;;;5020570;28;20032;-72
2022/11/28 02:02:12;;;;;;;30.15;13.70;;;;;;;;;;5037246;28;20067;-73
2022/11/28 02:04:37;;;;;;;23.77;12.40;;;;;;;;;;5040269;28;20128;-72
2022/11/28 02:07:03;;;;;;;27.67;13.87;;;;;;;;;;5024335;28;20074;-74
2022/11/28 02:09:28;;;;;;;27.67;13.37;;;;;;;;;;5040524;28;20063;-73
2022/11/28 02:11:54;;;;;;;25.27;13.07;;;;;;;;;;5024366;28;20036;-73
2022/11/28 02:14:20;;;;;;;34.60;14.37;;;;;;;;;;5057370;28;20044;-74
2022/11/28 02:17:05;;;;;;;167.60;19.47;;;;;;;;;;5023202;28;20046;-74
2022/11/28 02:20:05;;;;;;;26.97;12.60;;;;;;;;;;5021815;28;20489;-74
2022/11/28 02:22:45;;;;;;;24.15;11.55;;;;;;;;;;5036991;28;20115;-74
2022/11/28 02:25:17;;;;;;;24.93;12.63;;;;;;;;;;5037190;28;20383;-74
2022/11/28 02:28:08;;;;;;;22.20;11.40;;;;;;;;;;5020283;28;20060;-74
2022/11/28 02:30:46;;;;;;;22.93;11.03;;;;;;;;;;5020767;28;20678;-73
2022/11/28 02:33:15;;;;;;;33.23;11.63;;;;;;;;;;5021572;28;20028;-73
2022/11/28 02:35:40;;;;;;;21.90;10.93;;;;;;;;;;5073608;28;20123;-72
2022/11/28 02:38:21;;;;;;;24.67;11.87;;;;;;;;;;5023599;28;20127;-72
2022/11/28 02:40:47;;;;;;;;;;;;;;;;;;5040363;28;20110;-75
2022/11/28 02:43:21;;;;;;;28.80;13.17;;;;;;;;;;5023763;28;20342;-75
2022/11/28 02:45:56;;;;;;;28.77;13.73;;;;;;;;;;5023527;28;20588;-74
2022/11/28 02:48:28;;;;;;;25.97;12.83;;;;;;;;;;5023745;28;20024;-73
2022/11/28 02:51:02;;;;;;;28.87;13.23;;;;;;;;;;5057171;28;20443;-74
2022/11/28 02:53:31;;;;;;;26.47;13.13;;;;;;;;;;5056772;28;20452;-73
2022/11/28 02:55:57;;;;;;;29.73;15.33;;;;;;;;;;5023425;28;20040;-73
2022/11/28 02:58:22;;;;;;;29.27;13.73;;;;;;;;;;5039864;28;20024;-74
2022/11/28 03:00:53;;;;;;;203.30;21.00;;;;;;;;;;5024014;28;20117;-74
2022/11/28 03:03:35;;;;;;;25.67;12.47;;;;;;;;;;5040093;28;20105;-75
2022/11/28 03:06:11;;;;;;;33.83;13.17;;;;;;;;;;5023129;28;20036;-74
2022/11/28 03:09:06;;;;;;;29.07;13.17;;;;;;;;;;5039682;28;20037;-74
2022/11/28 03:11:40;;;;;;;27.03;12.80;;;;;;;;;;4953995;28;20046;-74
2022/11/28 03:14:14;;;;;;;27.77;12.47;;;;;;;;;;5039517;28;20033;-74
2022/11/28 03:16:52;;;;;;;30.00;13.20;;;;;;;;;;5039635;28;20036;-74
2022/11/28 03:19:25;;;;;;;29.53;13.30;;;;;;;;;;5023179;28;20130;-74
2022/11/28 03:22:11;;;;;;;37.10;14.30;;;;;;;;;;5039397;28;20052;-74
2022/11/28 03:24:44;;;;;;;26.67;12.07;;;;;;;;;;5056077;28;20072;-74
2022/11/28 03:27:16;;;;;;;32.00;14.10;;;;;;;;;;5022328;28;20478;-75
2022/11/28 03:29:45;;;;;;;31.47;12.90;;;;;;;;;;5039040;28;20472;-74
2022/11/28 03:32:23;;;;;;;48.73;13.47;;;;;;;;;;5038863;28;20060;-74
2022/11/28 03:34:51;;;;;;;28.60;13.03;;;;;;;;;;5073346;28;20063;-75
2022/11/28 03:37:25;;;;;;;29.73;13.13;;;;;;;;;;5038742;28;20042;-74
2022/11/28 03:39:58;;;;;;;39.23;15.60;;;;;;;;;;5039221;28;20094;-75
2022/11/28 03:42:25;;;;;;;37.23;14.17;;;;;;;;;;5038780;28;20127;-71
2022/11/28 03:44:57;;;;;;;30.43;13.00;;;;;;;;;;5022317;28;20028;-71
2022/11/28 03:47:27;;;;;;;26.17;12.93;;;;;;;;;;5038764;28;20497;-71
2022/11/28 03:49:55;;;;;;;26.67;13.30;;;;;;;;;;5038693;28;20040;-72
2022/11/28 03:52:41;;;;;;;36.57;15.03;;;;;;;;;;5021931;28;20154;-72
2022/11/28 03:55:15;;;;;;;26.17;12.70;;;;;;;;;;5021385;28;20102;-75
2022/11/28 03:57:50;;;;;;;24.20;11.60;;;;;;;;;;5055061;28;20032;-75
2022/11/28 04:00:16;;;;;;;27.03;13.23;;;;;;;;;;5021482;28;20061;-75
2022/11/28 04:02:51;;;;;;;24.13;11.73;;;;;;;;;;5038209;28;20122;-72
2022/11/28 04:05:35;;;;;;;20.33;10.43;;;;;;;;;;5054793;28;20040;-73
2022/11/28 04:08:11;;;;;;;18.53;9.50;;;;;;;;;;5038563;28;20033;-73
2022/11/28 04:10:44;;;;;;;18.77;10.03;;;;;;;;;;5053525;28;20541;-75
2022/11/28 04:13:12;;;;;;;18.03;9.80;;;;;;;;;;5020556;28;20465;-74
2022/11/28 04:15:41;;;;;;;17.80;9.47;;;;;;;;;;5038036;28;20033;-72
2022/11/28 04:18:06;;;;;;;15.57;9.37;;;;;;;;;;5037896;28;20032;-73
2022/11/28 04:20:34;;;;;;;14.47;8.93;;;;;;;;;;5021540;28;20098;-73
2022/11/28 04:23:03;;;;;;;11.67;7.47;;;;;;;;;;5038430;28;20032;-73
2022/11/28 04:25:31;;;;;;;16.13;8.77;;;;;;;;;;5021428;28;20047;-74
2022/11/28 04:28:00;;;;;;;11.80;7.40;;;;;;;;;;5021418;28;20463;-69
2022/11/28 04:30:26;;;;;;;13.17;7.63;;;;;;;;;;5054435;28;20048;-68
2022/11/28 04:32:55;;;;;;;14.03;7.93;;;;;;;;;;5021341;28;20043;-68
2022/11/28 04:35:29;;;;;;;11.87;7.37;;;;;;;;;;5021340;28;20060;-71
2022/11/28 04:37:57;;;;;;;11.67;7.23;;;;;;;;;;5037773;28;20411;-68
2022/11/28 04:40:23;;;;;;;13.60;7.73;;;;;;;;;;5071837;28;20109;-67
2022/11/28 04:42:57;;;;;;;12.13;7.03;;;;;;;;;;5054267;28;20032;-70
2022/11/28 04:45:52;;;;;;;12.70;7.17;;;;;;;;;;5054250;28;20130;-67
2022/11/28 04:48:18;;;;;;;11.93;6.83;;;;;;;;;;5023748;28;20054;-69
2022/11/28 04:50:59;;;;;;;14.33;7.03;;;;;;;;;;5053969;28;20033;-69
2022/11/28 04:53:45;;;;;;;12.07;7.40;;;;;;;;;;5037417;28;20474;-66
2022/11/28 04:56:12;;;;;;;13.80;7.87;;;;;;;;;;5023988;28;20036;-68
2022/11/28 04:58:40;;;;;;;14.60;7.53;;;;;;;;;;5020617;28;20036;-67
2022/11/28 05:01:08;;;;;;;16.63;7.80;;;;;;;;;;5043809;28;20084;-67
2022/11/28 05:03:34;;;;;;;17.53;9.33;;;;;;;;;;5015058;28;20051;-66
2022/11/28 05:06:00;;;;;;;13.83;7.70;;;;;;;;;;5049134;28;20385;-66
2022/11/28 05:08:26;;;;;;;13.93;7.87;;;;;;;;;;5033241;28;20454;-67
2022/11/28 05:10:51;;;;;;;13.07;7.47;;;;;;;;;;5016846;28;20032;-67
2022/11/28 05:13:17;;;;;;;16.53;7.80;;;;;;;;;;5049070;28;20020;-67
2022/11/28 05:15:42;;;;;;;11.70;7.67;;;;;;;;;;5014219;28;20087;-67
2022/11/28 05:18:08;;;;;;;10.93;6.43;;;;;;;;;;5031074;28;20029;-68
2022/11/28 05:20:34;;;;;;;10.63;5.67;;;;;;;;;;5021422;28;20489;-66
2022/11/28 05:22:59;;;;;;;10.43;6.37;;;;;;;;;;5030990;28;20120;-69
2022/11/28 05:25:25;;;;;;;9.00;5.40;;;;;;;;;;5018549;28;20524;-66
2022/11/28 05:27:50;;;;;;;11.53;6.17;;;;;;;;;;5027052;28;20450;-67
2022/11/28 05:30:16;;;;;;;11.57;6.37;;;;;;;;;;5052945;28;20123;-66
2022/11/28 05:32:42;;;;;;;9.20;5.03;;;;;;;;;;5053397;28;20127;-66
2022/11/28 05:35:07;;;;;;;8.37;5.70;;;;;;;;;;5052246;28;20051;-68
2022/11/28 05:37:33;;;;;;;8.73;5.30;;;;;;;;;;5018913;28;20089;-68
2022/11/28 05:39:58;;;;;;;18.03;7.20;;;;;;;;;;5021315;28;20024;-67
2022/11/28 05:42:29;;;;;;;13.53;7.47;;;;;;;;;;5037260;28;20102;-66
2022/11/28 05:44:55;;;;;;;10.20;6.20;;;;;;;;;;5053433;28;20066;-67
2022/11/28 05:47:22;;;;;;;11.93;6.27;;;;;;;;;;5037690;28;20044;-67
2022/11/28 05:49:48;;;;;;;12.13;6.87;;;;;;;;;;5021104;28;20079;-67
2022/11/28 05:52:13;;;;;;;11.60;6.60;;;;;;;;;;5022743;28;20044;-67
2022/11/28 05:54:39;;;;;;;10.33;6.77;;;;;;;;;;5056692;28;20032;-67
2022/11/28 05:57:07;;;;;;;10.90;5.80;;;;;;;;;;5023936;28;20035;-67
2022/11/28 05:59:33;;;;;;;8.77;5.27;;;;;;;;;;5023615;28;20036;-67
2022/11/28 06:01:58;;;;;;;9.63;5.60;;;;;;;;;;5056489;28;20040;-66
2022/11/28 06:04:24;;;;;;;10.33;5.13;;;;;;;;;;5023419;28;20040;-66
2022/11/28 06:06:50;;;;;;;11.53;5.43;;;;;;;;;;5056549;28;20039;-67
2022/11/28 06:09:16;;;;;;;9.47;5.23;;;;;;;;;;5023402;28;20028;-67
2022/11/28 06:11:41;;;;;;;11.10;5.47;;;;;;;;;;5039340;28;20442;-66
2022/11/28 06:14:07;;;;;;;10.27;5.80;;;;;;;;;;5023510;28;20044;-67
2022/11/28 06:16:32;;;;;;;8.73;4.90;;;;;;;;;;5039679;28;20033;-66
2022/11/28 06:19:05;;;;;;;9.27;5.30;;;;;;;;;;5056306;28;20202;-66
2022/11/28 06:21:31;;;;;;;10.17;5.40;;;;;;;;;;5039690;28;20351;-68
2022/11/28 06:23:57;;;;;;;14.50;5.87;;;;;;;;;;5023219;28;20039;-66
2022/11/28 06:26:23;;;;;;;9.27;5.67;;;;;;;;;;5056058;28;20040;-66
2022/11/28 06:28:49;;;;;;;13.77;6.00;;;;;;;;;;5056557;28;20044;-66
2022/11/28 06:31:19;;;;;;;11.57;5.53;;;;;;;;;;5039627;28;20036;-66
2022/11/28 06:33:45;;;;;;;10.73;6.07;;;;;;;;;;5056123;28;20036;-66
2022/11/28 06:36:11;;;;;;;14.17;6.00;;;;;;;;;;5022570;28;20043;-66
2022/11/28 06:38:37;;;;;;;12.53;5.20;;;;;;;;;;5073555;28;20037;-66
2022/11/28 06:41:04;;;;;;;12.33;5.63;;;;;;;;;;5039623;28;20135;-66
2022/11/28 06:43:29;;;;;;;12.43;5.20;;;;;;;;;;5022759;28;20032;-66
2022/11/28 06:45:55;;;;;;;10.37;5.07;;;;;;;;;;5022834;28;20102;-66
2022/11/28 06:48:21;;;;;;;10.77;5.37;;;;;;;;;;5039311;28;20072;-66
2022/11/28 06:50:47;;;;;;;10.47;5.80;;;;;;;;;;5054771;28;20126;-66
2022/11/28 06:53:13;;;;;;;12.27;5.37;;;;;;;;;;5073145;28;20120;-66
2022/11/28 06:55:39;;;;;;;12.90;5.90;;;;;;;;;;5022772;28;20037;-66
2022/11/28 06:58:04;;;;;;;11.47;5.90;;;;;;;;;;5055649;28;20028;-66
2022/11/28 07:00:30;;;;;;;12.23;5.80;;;;;;;;;;5038571;28;20052;-66
2022/11/28 07:02:57;;;;;;;10.27;5.73;;;;;;;;;;5022392;28;20043;-66
2022/11/28 07:05:26;;;;;;;11.30;6.00;;;;;;;;;;5055349;28;20390;-66
2022/11/28 07:07:54;;;;;;;12.23;6.43;;;;;;;;;;5055450;28;20127;-66
2022/11/28 07:10:20;;;;;;;10.13;5.73;;;;;;;;;;5055396;28;20039;-66
2022/11/28 07:12:46;;;;;;;10.10;5.93;;;;;;;;;;5054497;28;20040;-66
2022/11/28 07:15:12;;;;;;;11.43;6.50;;;;;;;;;;5055304;28;20032;-66
2022/11/28 07:17:37;;;;;;;16.23;7.17;;;;;;;;;;5038462;28;20040;-66
2022/11/28 07:20:04;;;;;;;8.87;5.97;;;;;;;;;;5022353;28;20067;-66
2022/11/28 07:22:29;;;;;;;14.07;6.57;;;;;;;;;;5038723;28;20044;-66
2022/11/28 07:24:55;;;;;;;15.37;7.57;;;;;;;;;;5055148;28;20043;-66
2022/11/28 07:27:21;;;;;;;16.57;8.70;;;;;;;;;;5021788;28;20526;-66
2022/11/28 07:29:46;;;;;;;16.87;7.63;;;;;;;;;;5021881;28;20036;-66
2022/11/28 07:32:12;;;;;;;17.23;7.50;;;;;;;;;;5021970;28;20041;-66
2022/11/28 07:34:40;;;;;;;14.00;7.43;;;;;;;;;;5022011;28;20440;-67
2022/11/28 07:37:05;;;;;;;18.00;8.07;;;;;;;;;;5038835;28;20039;-66
2022/11/28 07:39:31;;;;;;;22.90;8.83;;;;;;;;;;5038479;28;20036;-66
2022/11/28 07:41:57;;;;;;;18.00;8.47;;;;;;;;;;5021755;28;20075;-66
2022/11/28 07:44:23;;;;;;;15.43;8.13;;;;;;;;;;5021738;28;20135;-66
2022/11/28 07:46:48;;;;;;;20.47;9.67;;;;;;;;;;5021843;28;20147;-66
2022/11/28 07:49:14;;;;;;;15.50;8.50;;;;;;;;;;5054934;28;20050;-66
2022/11/28 07:51:40;;;;;;;18.70;9.07;;;;;;;;;;5037956;28;20033;-66
2022/11/28 07:54:06;;;;;;;15.93;8.40;;;;;;;;;;5038388;28;20036;-66
2022/11/28 07:56:33;;;;;;;15.73;8.20;;;;;;;;;;5021550;28;20127;-66
2022/11/28 07:58:59;;;;;;;19.33;9.77;;;;;;;;;;5038065;28;20040;-66
2022/11/28 08:01:27;;;;;;;16.00;8.83;;;;;;;;;;5020315;28;20116;-66
2022/11/28 08:03:52;;;;;;;18.93;8.77;;;;;;;;;;5038071;28;20032;-66
2022/11/28 08:06:19;;;;;;;16.33;9.07;;;;;;;;;;5037591;28;20063;-66
2022/11/28 08:08:46;;;;;;;24.00;11.13;;;;;;;;;;5054366;28;20056;-66
2022/11/28 08:11:12;;;;;;;21.03;10.03;;;;;;;;;;5020819;28;20118;-66
2022/11/28 08:13:38;;;;;;;18.60;9.63;;;;;;;;;;5036979;28;20592;-66
2022/11/28 08:16:05;;;;;;;23.03;9.90;;;;;;;;;;5054659;28;20032;-67
2022/11/28 08:18:31;;;;;;;21.13;9.30;;;;;;;;;;5037457;28;20040;-67
2022/11/28 08:21:07;;;;;;;20.50;9.57;;;;;;;;;;5054022;28;20059;-66
2022/11/28 08:23:33;;;;;;;18.60;8.77;;;;;;;;;;5054196;28;20480;-66
2022/11/28 08:26:00;;;;;;;24.03;10.30;;;;;;;;;;5020860;28;20557;-66
2022/11/28 08:28:26;;;;;;;22.17;9.80;;;;;;;;;;5037179;28;20123;-66
2022/11/28 08:30:52;;;;;;;24.03;9.90;;;;;;;;;;5021040;28;20139;-66
2022/11/28 08:33:17;;;;;;;23.20;10.50;;;;;;;;;;5020197;28;20090;-66
2022/11/28 08:35:43;;;;;;;22.70;10.33;;;;;;;;;;5037687;28;20037;-66
2022/11/28 08:38:09;;;;;;;21.73;10.33;;;;;;;;;;5020612;28;20036;-66
2022/11/28 08:40:34;;;;;;;16.73;9.10;;;;;;;;;;5037296;28;20032;-66
2022/11/28 08:43:00;;;;;;;17.67;9.77;;;;;;;;;;5036904;28;20037;-66
2022/11/28 08:45:25;;;;;;;20.03;10.00;;;;;;;;;;5053962;28;20418;-66
2022/11/28 08:47:51;;;;;;;20.83;10.73;;;;;;;;;;5037165;28;20049;-66
2022/11/28 08:50:17;;;;;;;14.93;8.50;;;;;;;;;;5036622;28;20383;-67
2022/11/28 08:52:42;;;;;;;16.77;9.13;;;;;;;;;;5068331;28;20066;-66
2022/11/28 08:55:08;;;;;;;22.17;10.20;;;;;;;;;;5035464;28;20047;-67
2022/11/28 08:57:42;;;;;;;22.20;10.37;;;;;;;;;;5070415;28;20033;-66
2022/11/28 09:00:08;;;;;;;19.47;9.13;;;;;;;;;;5086924;28;20060;-67
2022/11/28 09:02:34;;;;;;;15.57;8.10;;;;;;;;;;5071183;28;20037;-65
2022/11/28 09:05:00;;;;;;;22.77;9.10;;;;;;;;;;5036924;28;20135;-66
2022/11/28 09:07:25;;;;;;;20.43;9.40;;;;;;;;;;5053188;28;20037;-65
2022/11/28 09:09:51;;;;;;;20.07;8.37;;;;;;;;;;5036829;28;20043;-66
2022/11/28 09:12:16;;;;;;;20.40;8.87;;;;;;;;;;5036008;28;20360;-66
2022/11/28 09:14:42;;;;;;;15.40;8.20;;;;;;;;;;5053362;28;20041;-66
2022/11/28 09:17:08;;;;;;;18.33;8.57;;;;;;;;;;5036635;28;20048;-66
2022/11/28 09:19:33;;;;;;;17.90;8.77;;;;;;;;;;5036808;28;20043;-65
2022/11/28 09:21:59;;;;;;;18.00;8.60;;;;;;;;;;5069993;28;20468;-66
2022/11/28 09:24:24;;;;;;;12.60;7.40;;;;;;;;;;5069879;28;20135;-65
2022/11/28 09:26:50;;;;;;;13.07;7.33;;;;;;;;;;5069977;28;20074;-66
2022/11/28 09:29:18;;;;;;;14.30;6.73;;;;;;;;;;5053846;28;20466;-66
2022/11/28 09:31:43;;;;;;;15.67;7.03;;;;;;;;;;5069960;28;20105;-66
2022/11/28 09:34:09;;;;;;;13.67;5.77;;;;;;;;;;5036475;28;20033;-66
2022/11/28 09:36:34;;;;;;;13.53;5.87;;;;;;;;;;5069968;28;20036;-66
2022/11/28 09:39:00;;;;;;;11.43;5.70;;;;;;;;;;5036760;28;20028;-65
2022/11/28 09:42:04;;;;;;;10.40;5.33;;;;;;;;;;5036336;28;20056;-66
2022/11/28 09:44:30;;;;;;;9.23;4.30;;;;;;;;;;4995785;28;20041;-66
2022/11/28 09:46:58;;;;;;;7.93;4.37;;;;;;;;;;5012512;28;20040;-66
2022/11/28 09:49:30;;;;;;;9.50;4.17;;;;;;;;;;5031535;28;20044;-66
2022/11/28 09:51:59;;;;;;;8.53;4.40;;;;;;;;;;5036488;28;20039;-66
2022/11/28 09:54:31;;;;;;;9.07;4.50;;;;;;;;;;5036421;28;20037;-66
2022/11/28 09:56:57;;;;;;;6.80;4.20;;;;;;;;;;5053022;28;20036;-66
2022/11/28 09:59:25;;;;;;;6.50;4.00;;;;;;;;;;5034570;28;20467;-66
2022/11/28 10:01:54;;;;;;;7.20;4.63;;;;;;;;;;5050045;28;20084;-66
2022/11/28 10:04:19;;;;;;;7.97;4.43;;;;;;;;;;5050138;28;20072;-66
2022/11/28 10:07:03;;;;;;;9.37;4.87;;;;;;;;;;5032895;28;20516;-66
2022/11/28 10:09:52;;;;;;;8.23;3.93;;;;;;;;;;5033505;28;20041;-67
2022/11/28 10:12:30;;;;;;;6.17;4.23;;;;;;;;;;5005114;28;20474;-66
2022/11/28 10:15:08;;;;;;;9.87;4.37;;;;;;;;;;5034523;28;20044;-66
2022/11/28 10:17:37;;;;;;;6.63;4.27;;;;;;;;;;5036383;28;20131;-66
2022/11/28 10:20:23;;;;;;;12.10;3.93;;;;;;;;;;5070090;28;20115;-66
2022/11/28 10:22:51;;;;;;;5.23;3.70;;;;;;;;;;5068987;28;20048;-66
2022/11/28 10:25:23;;;;;;;4.17;3.20;;;;;;;;;;5054788;28;20109;-71
2022/11/28 10:27:50;;;;;;;6.17;3.77;;;;;;;;;;5039837;28;20040;-67
2022/11/28 10:30:26;;;;;;;5.30;3.30;;;;;;;;;;5072859;28;20033;-67
2022/11/28 10:33:05;;;;;;;5.60;3.33;;;;;;;;;;5089870;28;20075;-67
2022/11/28 10:35:49;;;;;;;5.93;3.00;;;;;;;;;;5039454;28;20058;-67
2022/11/28 10:38:15;;;;;;;6.53;3.20;;;;;;;;;;5039466;28;20109;-67
2022/11/28 10:41:00;;;;;;;6.33;4.00;;;;;;;;;;5056203;28;20101;-66
2022/11/28 10:43:33;;;;;;;7.00;4.00;;;;;;;;;;5039397;28;20139;-67
2022/11/28 10:46:05;;;;;;;5.53;3.60;;;;;;;;;;5072788;28;20064;-67
2022/11/28 10:49:00;;;;;;;7.70;3.77;;;;;;;;;;5039199;28;20041;-66
2022/11/28 10:51:28;;;;;;;4.83;3.40;;;;;;;;;;5019297;28;20048;-73
2022/11/28 10:54:03;;;;;;;7.93;3.20;;;;;;;;;;5058651;28;20540;-68
2022/11/28 10:56:35;;;;;;;6.10;3.40;;;;;;;;;;5024870;28;20122;-68
2022/11/28 10:59:00;;;;;;;4.43;2.87;;;;;;;;;;5039128;28;20124;-67
2022/11/28 11:01:29;;;;;;;6.53;2.87;;;;;;;;;;5022071;28;20151;-68
2022/11/28 11:03:55;;;;;;;3.60;2.40;;;;;;;;;;5038912;28;20131;-68
2022/11/28 11:06:23;;;;;;;4.77;2.90;;;;;;;;;;5055328;28;20451;-68
2022/11/28 11:08:49;;;;;;;4.50;2.70;;;;;;;;;;5055414;28;20029;-68
2022/11/28 11:11:47;;;;;;;3.73;2.90;;;;;;;;;;5055216;28;20489;-68
2022/11/28 11:14:13;;;;;;;5.47;2.50;;;;;;;;;;4979403;28;20036;-69
2022/11/28 11:16:47;;;;;;;4.13;2.43;;;;;;;;;;5055512;28;20386;-68
2022/11/28 11:19:23;;;;;;;4.10;3.03;;;;;;;;;;5021996;28;20028;-67
2022/11/28 11:21:58;;;;;;;4.53;2.80;;;;;;;;;;5021987;28;20044;-67
2022/11/28 11:24:33;;;;;;;6.10;3.13;;;;;;;;;;5020637;28;20058;-69
2022/11/28 11:27:06;;;;;;;5.40;3.30;;;;;;;;;;5044735;28;20060;-69
2022/11/28 11:29:34;;;;;;;4.07;3.05;;;;;;;;;;5002159;28;20118;-66
2022/11/28 11:32:02;;;;;;;5.50;3.53;;;;;;;;;;5018428;28;20037;-66
2022/11/28 11:34:31;;;;;;;4.13;2.73;;;;;;;;;;5018130;28;20148;-67
2022/11/28 11:37:16;;;;;;;5.40;2.77;;;;;;;;;;5034838;28;20047;-67
2022/11/28 11:39:51;;;;;;;5.43;3.17;;;;;;;;;;5001804;28;20036;-68
2022/11/28 11:42:35;;;;;;;4.00;2.90;;;;;;;;;;5001887;28;20068;-67
2022/11/28 11:45:20;;;;;;;5.27;3.60;;;;;;;;;;5034695;28;20025;-66
2022/11/28 11:47:46;;;;;;;5.13;3.33;;;;;;;;;;5007845;28;20479;-66
2022/11/28 11:50:19;;;;;;;5.10;3.20;;;;;;;;;;5015955;28;20063;-67
2022/11/28 11:53:05;;;;;;;5.23;3.03;;;;;;;;;;4999755;28;20068;-66
2022/11/28 11:55:31;;;;;;;4.77;3.33;;;;;;;;;;5032338;28;20127;-68
2022/11/28 11:57:59;;;;;;;5.03;3.30;;;;;;;;;;5000363;28;20043;-68
2022/11/28 12:00:27;;;;;;;6.83;4.20;;;;;;;;;;5050832;28;20053;-68
2022/11/28 12:03:02;;;;;;;6.93;4.30;;;;;;;;;;5007458;28;20033;-67
2022/11/28 12:05:47;;;;;;;6.53;4.27;;;;;;;;;;5054312;28;20044;-67
2022/11/28 12:08:19;;;;;;;9.43;5.13;;;;;;;;;;5021043;28;20131;-66
2022/11/28 12:10:50;;;;;;;11.70;6.70;;;;;;;;;;5021094;28;20386;-68
2022/11/28 12:13:20;;;;;;;10.17;6.00;;;;;;;;;;5053500;28;20028;-68
2022/11/28 12:15:59;;;;;;;6.60;4.57;;;;;;;;;;5054592;28;20133;-67
2022/11/28 12:18:27;;;;;;;7.27;5.07;;;;;;;;;;5021260;28;20172;-68
2022/11/28 12:21:19;;;;;;;11.00;5.90;;;;;;;;;;5037196;28;20388;-67
2022/11/28 12:24:00;;;;;;;8.70;5.20;;;;;;;;;;4991472;28;20087;-67
2022/11/28 12:26:44;;;;;;;8.77;4.90;;;;;;;;;;5071380;28;20383;-67
2022/11/28 12:29:19;;;;;;;8.83;5.43;;;;;;;;;;5037632;28;20528;-68
2022/11/28 12:31:44;;;;;;;11.03;5.43;;;;;;;;;;5037387;28;20471;-68
2022/11/28 12:34:13;;;;;;;8.47;5.03;;;;;;;;;;5020851;28;20131;-68
2022/11/28 12:36:48;;;;;;;10.20;6.00;;;;;;;;;;5020648;28;20055;-68
2022/11/28 12:39:17;;;;;;;11.43;7.23;;;;;;;;;;5053716;28;20385;-67
2022/11/28 12:41:52;;;;;;;13.67;7.67;;;;;;;;;;5020509;28;20197;-68
2022/11/28 12:44:18;;;;;;;16.10;8.37;;;;;;;;;;5020622;28;20035;-67
2022/11/28 12:46:46;;;;;;;12.47;7.23;;;;;;;;;;5036740;28;20041;-68
2022/11/28 12:49:41;;;;;;;17.33;7.67;;;;;;;;;;5037441;28;20136;-68
2022/11/28 12:52:30;;;;;;;15.37;7.53;;;;;;;;;;5003596;28;20044;-68
2022/11/28 12:54:58;;;;;;;15.43;8.00;;;;;;;;;;5036987;28;20089;-69
2022/11/28 12:57:24;;;;;;;14.07;7.40;;;;;;;;;;5020739;28;20086;-68
2022/11/28 12:59:55;;;;;;;17.07;8.43;;;;;;;;;;5036796;28;20051;-68
2022/11/28 13:02:25;;;;;;;13.70;7.60;;;;;;;;;;5053167;28;20048;-68
2022/11/28 13:05:13;;;;;;;13.63;6.93;;;;;;;;;;5036691;28;20128;-68
2022/11/28 13:08:02;;;;;;;12.97;6.90;;;;;;;;;;5020271;28;20036;-68
2022/11/28 13:10:38;;;;;;;14.20;7.67;;;;;;;;;;5036168;28;20032;-69
2022/11/28 13:13:08;;;;;;;14.53;8.33;;;;;;;;;;5019897;28;20028;-67
2022/11/28 13:15:37;;;;;;;16.15;8.30;;;;;;;;;;5020291;28;20043;-67
2022/11/28 13:18:18;;;;;;;15.40;8.13;;;;;;;;;;5020262;28;20032;-68
2022/11/28 13:20:45;;;;;;;21.90;9.97;;;;;;;;;;5020282;28;20044;-68
2022/11/28 13:23:20;;;;;;;17.17;9.27;;;;;;;;;;5020126;28;20382;-68
2022/11/28 13:25:51;;;;;;;18.93;10.23;;;;;;;;;;5036775;28;20140;-68
2022/11/28 13:28:16;;;;;;;;;;;;;;;;;;5020688;28;20524;-68
2022/11/28 13:30:53;;;;;;;18.10;9.23;;;;;;;;;;5036718;28;19912;-68
2022/11/28 13:33:28;;;;;;;17.77;9.20;;;;;;;;;;5020378;28;20122;-68
2022/11/28 13:35:55;;;;;;;17.73;8.87;;;;;;;;;;5036648;28;20033;-68
2022/11/28 13:38:39;;;;;;;18.87;8.60;;;;;;;;;;5053016;28;20047;-68
2022/11/28 13:41:05;;;;;;;14.57;8.40;;;;;;;;;;5036526;28;20139;-68
2022/11/28 13:43:46;;;;;;;10.30;6.50;;;;;;;;;;5036163;28;20574;-68
2022/11/28 13:46:12;;;;;;;13.25;7.10;;;;;;;;;;5019834;28;20043;-68
2022/11/28 13:48:40;;;;;;;13.17;7.20;;;;;;;;;;5036125;28;20398;-68
2022/11/28 13:51:15;;;;;;;14.43;7.73;;;;;;;;;;5036709;28;20041;-68
2022/11/28 13:53:41;;;;;;;11.83;7.70;;;;;;;;;;5036645;28;20036;-68
2022/11/28 13:56:14;;;;;;;11.73;7.63;;;;;;;;;;5036757;28;20035;-72
2022/11/28 13:58:42;;;;;;;15.63;8.10;;;;;;;;;;5019896;28;20032;-66
2022/11/28 14:01:10;;;;;;;16.50;8.23;;;;;;;;;;5037078;28;20140;-67
2022/11/28 14:03:55;;;;;;;10.47;7.17;;;;;;;;;;5036906;28;20041;-67
2022/11/28 14:06:22;;;;;;;11.00;6.17;;;;;;;;;;5020110;28;20384;-67
2022/11/28 14:08:56;;;;;;;11.80;7.03;;;;;;;;;;5036561;28;20039;-67
2022/11/28 14:11:40;;;;;;;11.13;6.60;;;;;;;;;;5057487;28;20036;-67
2022/11/28 14:14:25;;;;;;;10.07;6.40;;;;;;;;;;5014260;28;20045;-69
2022/11/28 14:17:00;;;;;;;12.70;6.63;;;;;;;;;;4997850;28;20200;-67
2022/11/28 14:19:26;;;;;;;8.60;5.33;;;;;;;;;;4995529;28;20141;-67
2022/11/28 14:21:52;;;;;;;13.40;6.27;;;;;;;;;;5014263;28;20131;-67
2022/11/28 14:24:21;;;;;;;12.73;6.17;;;;;;;;;;5016099;28;20037;-68
2022/11/28 14:26:55;;;;;;;12.03;6.43;;;;;;;;;;5030113;28;20061;-67
2022/11/28 14:29:24;;;;;;;9.63;5.93;;;;;;;;;;5016850;28;20033;-67
2022/11/28 14:31:52;;;;;;;8.90;6.07;;;;;;;;;;5000181;28;20040;-67
2022/11/28 14:34:43;;;;;;;13.90;5.57;;;;;;;;;;5016081;28;20057;-67
2022/11/28 14:37:18;;;;;;;8.00;5.50;;;;;;;;;;5000015;28;20044;-67
2022/11/28 14:39:48;;;;;;;8.47;4.97;;;;;;;;;;4999929;28;20069;-67
2022/11/28 14:42:14;;;;;;;6.33;4.57;;;;;;;;;;5016075;28;20056;-67
2022/11/28 14:44:46;;;;;;;10.90;5.50;;;;;;;;;;4999823;28;20034;-67
2022/11/28 14:47:13;;;;;;;9.07;5.50;;;;;;;;;;5032610;28;20091;-67
2022/11/28 14:49:39;;;;;;;9.50;5.60;;;;;;;;;;5032806;28;20456;-67